createdAt,value
2018-06-24T00:00:39.469Z,71.42
2018-06-24T00:03:11.600Z,71.36
2018-06-24T00:05:43.649Z,71.14
2018-06-24T00:08:15.681Z,71.18
2018-06-24T00:10:47.768Z,70.90
2018-06-24T00:13:19.835Z,71.00
2018-06-24T00:15:51.923Z,70.60
2018-06-24T00:18:23.992Z,71.47
2018-06-24T00:20:56.166Z,71.96
2018-06-24T00:23:28.213Z,71.43
2018-06-24T00:26:00.288Z,72.12
2018-06-24T00:28:32.392Z,71.73
2018-06-24T00:31:04.479Z,71.80
2018-06-24T00:33:36.573Z,72.27
2018-06-24T00:36:08.675Z,72.72
2018-06-24T00:38:40.758Z,72.80
2018-06-24T00:41:12.792Z,72.55
2018-06-24T00:43:45.115Z,72.27
2018-06-24T00:46:17.165Z,72.50
2018-06-24T00:48:49.318Z,73.46
2018-06-24T00:51:21.383Z,73.00
2018-06-24T00:53:53.457Z,73.24
2018-06-24T00:56:25.590Z,73.67
2018-06-24T00:58:57.671Z,73.57
2018-06-24T01:01:29.740Z,73.13
2018-06-24T01:04:01.804Z,72.99
2018-06-24T01:06:33.877Z,72.98
2018-06-24T01:09:06.264Z,72.66
2018-06-24T01:11:38.356Z,72.39
2018-06-24T01:14:10.411Z,72.10
2018-06-24T01:16:42.459Z,72.22
2018-06-24T01:19:14.575Z,72.40
2018-06-24T01:21:46.645Z,72.19
2018-06-24T01:24:18.743Z,72.41
2018-06-24T01:26:50.836Z,71.72
2018-06-24T01:29:22.907Z,72.00
2018-06-24T01:31:54.967Z,71.49
2018-06-24T01:34:27.067Z,71.40
2018-06-24T01:36:59.234Z,71.20
2018-06-24T01:39:31.254Z,72.22
2018-06-24T01:42:03.336Z,71.29
2018-06-24T01:44:35.454Z,70.63
2018-06-24T01:47:07.559Z,70.86
2018-06-24T01:49:39.667Z,70.86
2018-06-24T01:52:11.735Z,71.00
2018-06-24T01:54:43.807Z,71.11
2018-06-24T01:57:15.901Z,71.01
2018-06-24T01:59:47.940Z,70.56
2018-06-24T02:02:20.007Z,71.00
2018-06-24T02:04:52.065Z,70.79
2018-06-24T02:07:24.126Z,70.75
2018-06-24T02:09:56.169Z,70.41
2018-06-24T02:12:28.244Z,71.03
2018-06-24T02:15:00.330Z,70.73
2018-06-24T02:17:32.399Z,71.02
2018-06-24T02:20:04.462Z,71.50
2018-06-24T02:22:36.537Z,71.38
2018-06-24T02:25:08.736Z,71.71
2018-06-24T02:27:40.823Z,72.23
2018-06-24T02:30:12.852Z,72.41
2018-06-24T02:32:44.968Z,72.63
2018-06-24T02:35:17.006Z,72.10
2018-06-24T02:37:49.119Z,71.12
2018-06-24T02:40:21.233Z,71.32
2018-06-24T02:42:53.404Z,70.78
2018-06-24T02:45:25.471Z,70.97
2018-06-24T02:47:57.614Z,70.84
2018-06-24T02:50:29.695Z,71.47
2018-06-24T02:53:01.757Z,71.13
2018-06-24T02:55:33.806Z,71.47
2018-06-24T02:58:05.903Z,71.05
2018-06-24T03:00:38.000Z,72.26
2018-06-24T03:03:10.091Z,71.49
2018-06-24T03:05:42.182Z,71.79
2018-06-24T03:08:14.302Z,71.96
2018-06-24T03:10:46.435Z,71.62
2018-06-24T03:13:18.497Z,71.58
2018-06-24T03:15:50.601Z,71.35
2018-06-24T03:18:22.644Z,71.85
2018-06-24T03:20:54.690Z,71.69
2018-06-24T03:23:26.802Z,71.51
2018-06-24T03:25:58.871Z,71.88
2018-06-24T03:28:30.936Z,71.47
2018-06-24T03:31:03.003Z,71.72
2018-06-24T03:33:35.084Z,72.12
2018-06-24T03:36:07.187Z,71.87
2018-06-24T03:38:39.285Z,71.69
2018-06-24T03:41:11.363Z,71.51
2018-06-24T03:43:43.529Z,71.65
2018-06-24T03:46:15.597Z,71.83
2018-06-24T03:48:47.671Z,71.65
2018-06-24T03:51:19.733Z,71.66
2018-06-24T03:53:51.802Z,71.78
2018-06-24T03:56:23.871Z,72.21
2018-06-24T03:58:55.962Z,72.28
2018-06-24T04:01:28.549Z,72.29
2018-06-24T04:04:00.646Z,72.03
2018-06-24T04:06:32.737Z,72.68
2018-06-24T04:09:06.077Z,72.39
2018-06-24T04:11:38.144Z,72.47
2018-06-24T04:14:10.205Z,73.18
2018-06-24T04:16:42.277Z,73.19
2018-06-24T04:19:14.381Z,73.24
2018-06-24T04:21:46.429Z,72.90
2018-06-24T04:24:18.515Z,73.22
2018-06-24T04:26:50.602Z,73.26
2018-06-24T04:29:22.722Z,73.26
2018-06-24T04:31:54.760Z,73.03
2018-06-24T04:34:26.831Z,72.65
2018-06-24T04:36:58.922Z,73.33
2018-06-24T04:39:30.987Z,72.83
2018-06-24T04:42:03.023Z,72.49
2018-06-24T04:44:35.090Z,72.33
2018-06-24T04:47:07.163Z,72.06
2018-06-24T04:49:39.244Z,72.22
2018-06-24T04:52:11.344Z,71.95
2018-06-24T04:54:43.412Z,71.87
2018-06-24T04:57:15.503Z,71.61
2018-06-24T04:59:47.596Z,71.38
2018-06-24T05:02:19.675Z,72.18
2018-06-24T05:04:51.729Z,72.02
2018-06-24T05:07:23.804Z,71.61
2018-06-24T05:09:55.880Z,71.39
2018-06-24T05:12:27.944Z,71.50
2018-06-24T05:14:59.996Z,70.70
2018-06-24T05:17:32.037Z,70.96
2018-06-24T05:20:04.107Z,70.12
2018-06-24T05:22:36.188Z,69.52
2018-06-24T05:25:08.509Z,69.37
2018-06-24T05:27:40.675Z,69.57
2018-06-24T05:30:12.744Z,69.20
2018-06-24T05:32:44.811Z,68.69
2018-06-24T05:35:16.881Z,67.81
2018-06-24T05:37:48.980Z,68.04
2018-06-24T05:40:21.078Z,67.71
2018-06-24T05:42:53.175Z,67.19
2018-06-24T05:45:25.261Z,67.23
2018-06-24T05:47:57.320Z,67.18
2018-06-24T05:50:29.480Z,67.28
2018-06-24T05:53:01.630Z,68.08
2018-06-24T05:55:33.749Z,67.38
2018-06-24T05:58:05.879Z,65.82
2018-06-24T06:00:37.984Z,65.19
2018-06-24T06:03:10.149Z,65.12
2018-06-24T06:05:42.224Z,66.41
2018-06-24T06:08:14.334Z,66.18
2018-06-24T06:10:46.465Z,66.38
2018-06-24T06:13:18.543Z,64.31
2018-06-24T06:15:50.616Z,64.19
2018-06-24T06:18:22.704Z,63.53
2018-06-24T06:20:55.247Z,63.01
2018-06-24T06:23:27.343Z,62.21
2018-06-24T06:25:59.464Z,61.08
2018-06-24T06:28:32.270Z,60.33
2018-06-24T06:31:04.416Z,59.68
2018-06-24T06:33:36.490Z,58.64
2018-06-24T06:36:08.648Z,57.33
2018-06-24T06:38:40.705Z,56.21
2018-06-24T06:41:12.816Z,55.56
2018-06-24T06:43:44.867Z,55.11
2018-06-24T06:46:16.937Z,54.45
2018-06-24T06:48:48.995Z,55.08
2018-06-24T06:51:21.070Z,56.12
2018-06-24T06:53:53.103Z,56.34
2018-06-24T06:56:25.197Z,56.12
2018-06-24T06:58:57.228Z,55.37
2018-06-24T07:01:29.307Z,52.78
2018-06-24T07:04:01.364Z,53.57
2018-06-24T07:06:33.424Z,53.33
2018-06-24T07:09:06.960Z,50.90
2018-06-24T07:11:39.375Z,50.37
2018-06-24T07:14:11.476Z,50.41
2018-06-24T07:16:43.521Z,51.24
2018-06-24T07:19:15.596Z,50.01
2018-06-24T07:21:47.722Z,47.69
2018-06-24T07:24:19.824Z,46.64
2018-06-24T07:26:51.874Z,45.97
2018-06-24T07:29:23.938Z,47.28
2018-06-24T07:31:56.096Z,47.28
2018-06-24T07:34:28.172Z,45.72
2018-06-24T07:37:00.224Z,43.69
2018-06-24T07:39:32.305Z,40.72
2018-06-24T07:42:04.378Z,39.34
2018-06-24T07:44:36.460Z,42.11
2018-06-24T07:47:08.615Z,38.65
2018-06-24T07:49:40.676Z,36.98
2018-06-24T07:52:12.773Z,36.10
2018-06-24T07:54:44.812Z,35.65
2018-06-24T07:57:16.939Z,34.90
2018-06-24T07:59:49.535Z,34.09
2018-06-24T08:02:21.615Z,35.14
2018-06-24T08:04:53.732Z,38.36
2018-06-24T08:07:25.899Z,37.73
2018-06-24T08:09:57.991Z,38.81
2018-06-24T08:12:30.914Z,38.19
2018-06-24T08:15:03.050Z,35.21
2018-06-24T08:17:35.126Z,35.65
2018-06-24T08:20:07.241Z,36.67
2018-06-24T08:22:39.385Z,38.31
2018-06-24T08:25:11.420Z,37.76
2018-06-24T08:27:43.506Z,39.43
2018-06-24T08:30:15.595Z,39.22
2018-06-24T08:32:47.711Z,34.86
2018-06-24T08:35:21.028Z,37.51
2018-06-24T08:37:53.119Z,39.69
2018-06-24T08:40:25.374Z,40.95
2018-06-24T08:42:57.509Z,41.13
2018-06-24T08:45:29.630Z,41.79
2018-06-24T08:48:01.749Z,41.98
2018-06-24T08:50:33.836Z,37.16
2018-06-24T08:53:05.984Z,37.47
2018-06-24T08:55:38.116Z,36.33
2018-06-24T08:58:10.223Z,36.09
2018-06-24T09:00:42.381Z,34.76
2018-06-24T09:03:14.461Z,32.76
2018-06-24T09:05:46.537Z,34.41
2018-06-24T09:08:18.598Z,35.43
2018-06-24T09:10:50.710Z,40.59
2018-06-24T09:13:22.829Z,40.08
2018-06-24T09:15:54.965Z,39.52
2018-06-24T09:18:26.984Z,40.00
2018-06-24T09:20:59.079Z,42.28
2018-06-24T09:23:31.222Z,41.61
2018-06-24T09:26:03.260Z,40.50
2018-06-24T09:28:35.387Z,42.34
2018-06-24T09:31:07.484Z,41.74
2018-06-24T09:33:39.590Z,41.59
2018-06-24T09:36:11.707Z,42.86
2018-06-24T09:38:43.801Z,42.63
2018-06-24T09:41:15.916Z,42.46
2018-06-24T09:43:47.977Z,39.89
2018-06-24T09:46:20.034Z,39.29
2018-06-24T09:48:52.251Z,36.94
2018-06-24T09:51:24.328Z,38.53
2018-06-24T09:53:56.415Z,36.60
2018-06-24T09:56:28.685Z,35.76
2018-06-24T09:59:00.763Z,37.90
2018-06-24T10:01:32.904Z,39.60
2018-06-24T10:04:05.223Z,40.99
2018-06-24T10:06:37.288Z,40.40
2018-06-24T10:09:10.405Z,41.13
2018-06-24T10:11:42.464Z,42.42
2018-06-24T10:14:14.502Z,42.50
2018-06-24T10:16:46.573Z,43.13
2018-06-24T10:19:18.663Z,42.46
2018-06-24T10:21:50.728Z,41.53
2018-06-24T10:24:22.832Z,40.91
2018-06-24T10:26:54.919Z,40.07
2018-06-24T10:29:27.041Z,40.28
2018-06-24T10:31:59.102Z,39.04
2018-06-24T10:34:31.175Z,38.38
2018-06-24T10:37:03.308Z,38.20
2018-06-24T10:39:35.373Z,41.41
2018-06-24T10:42:07.528Z,40.56
2018-06-24T10:44:39.664Z,37.97
2018-06-24T10:47:11.793Z,38.85
2018-06-24T10:49:43.842Z,36.23
2018-06-24T10:52:15.927Z,34.93
2018-06-24T10:54:47.984Z,34.44
2018-06-24T10:57:20.089Z,34.42
2018-06-24T10:59:52.235Z,33.73
2018-06-24T11:02:24.293Z,33.25
2018-06-24T11:04:56.400Z,32.74
2018-06-24T11:07:28.480Z,32.84
2018-06-24T11:10:00.592Z,35.18
2018-06-24T11:12:32.695Z,34.01
2018-06-24T11:15:04.928Z,31.17
2018-06-24T11:17:37.062Z,30.32
2018-06-24T11:20:09.152Z,29.00
2018-06-24T11:22:41.331Z,27.76
2018-06-24T11:25:13.444Z,28.77
2018-06-24T11:27:45.520Z,26.92
2018-06-24T11:30:17.585Z,27.74
2018-06-24T11:32:49.647Z,28.58
2018-06-24T11:35:21.713Z,30.56
2018-06-24T11:37:53.784Z,30.04
2018-06-24T11:40:25.892Z,30.37
2018-06-24T11:42:58.150Z,31.24
2018-06-24T11:45:31.187Z,30.36
2018-06-24T11:48:03.289Z,32.18
2018-06-24T11:50:35.404Z,30.97
2018-06-24T11:53:07.481Z,33.25
2018-06-24T11:55:39.617Z,32.20
2018-06-24T11:58:11.720Z,33.75
2018-06-24T12:00:43.807Z,34.44
2018-06-24T12:03:15.884Z,32.74
2018-06-24T12:05:48.079Z,32.68
2018-06-24T12:08:20.245Z,30.79
2018-06-24T12:10:52.386Z,29.26
2018-06-24T12:13:24.452Z,27.85
2018-06-24T12:15:56.602Z,29.13
2018-06-24T12:18:28.664Z,28.15
2018-06-24T12:21:00.733Z,28.57
2018-06-24T12:23:32.827Z,28.46
2018-06-24T12:26:04.932Z,29.29
2018-06-24T12:28:36.975Z,30.45
2018-06-24T12:31:09.040Z,31.14
2018-06-24T12:33:41.110Z,33.78
2018-06-24T12:36:13.193Z,34.20
2018-06-24T12:38:45.254Z,34.17
2018-06-24T12:41:17.455Z,33.99
2018-06-24T12:43:49.667Z,35.32
2018-06-24T12:46:21.774Z,35.74
2018-06-24T12:48:53.860Z,35.28
2018-06-24T12:51:25.964Z,33.61
2018-06-24T12:53:59.630Z,33.99
2018-06-24T12:56:32.262Z,33.02
2018-06-24T12:59:04.720Z,34.11
2018-06-24T13:01:36.610Z,33.29
2018-06-24T13:04:08.676Z,33.86
2018-06-24T13:06:40.756Z,36.71
2018-06-24T13:09:12.869Z,37.45
2018-06-24T13:11:45.136Z,38.17
2018-06-24T13:14:17.303Z,38.72
2018-06-24T13:16:49.391Z,39.61
2018-06-24T13:19:21.526Z,38.83
2018-06-24T13:21:53.648Z,40.46
2018-06-24T13:24:25.765Z,40.36
2018-06-24T13:26:57.866Z,39.42
2018-06-24T13:29:29.965Z,38.22
2018-06-24T13:32:02.081Z,38.04
2018-06-24T13:34:34.157Z,38.51
2018-06-24T13:37:06.279Z,37.04
2018-06-24T13:39:38.357Z,36.84
2018-06-24T13:42:10.519Z,37.43
2018-06-24T13:44:42.605Z,38.46
2018-06-24T13:47:14.796Z,37.86
2018-06-24T13:49:46.859Z,38.42
2018-06-24T13:52:18.941Z,37.88
2018-06-24T13:54:51.120Z,38.16
2018-06-24T13:57:23.223Z,38.25
2018-06-24T13:59:55.288Z,37.44
2018-06-24T14:02:27.395Z,39.03
2018-06-24T14:04:59.494Z,37.40
2018-06-24T14:07:31.640Z,39.00
2018-06-24T14:10:03.764Z,39.68
2018-06-24T14:12:35.867Z,39.75
2018-06-24T14:15:07.944Z,39.21
2018-06-24T14:17:40.011Z,40.08
2018-06-24T14:20:12.105Z,39.14
2018-06-24T14:22:44.245Z,39.84
2018-06-24T14:25:16.299Z,39.25
2018-06-24T14:27:48.391Z,38.57
2018-06-24T14:30:20.486Z,38.08
2018-06-24T14:32:52.579Z,39.77
2018-06-24T14:35:24.715Z,40.66
2018-06-24T14:37:56.885Z,40.19
2018-06-24T14:40:29.095Z,39.75
2018-06-24T14:43:01.623Z,40.02
2018-06-24T14:45:33.752Z,41.15
2018-06-24T14:48:06.390Z,40.36
2018-06-24T14:50:38.553Z,39.73
2018-06-24T14:53:10.743Z,38.48
2018-06-24T14:55:42.967Z,35.95
2018-06-24T14:58:15.208Z,37.16
2018-06-24T15:00:47.682Z,35.01
2018-06-24T15:03:19.745Z,36.94
2018-06-24T15:05:52.224Z,37.58
2018-06-24T15:08:24.387Z,37.81
2018-06-24T15:10:56.480Z,38.19
2018-06-24T15:13:28.574Z,39.59
2018-06-24T15:16:00.702Z,39.77
2018-06-24T15:18:32.816Z,40.25
2018-06-24T15:21:04.911Z,40.36
2018-06-24T15:23:37.037Z,40.15
2018-06-24T15:26:09.531Z,40.91
2018-06-24T15:28:41.676Z,38.44
2018-06-24T15:31:13.799Z,39.62
2018-06-24T15:33:45.900Z,38.35
2018-06-24T15:36:17.990Z,40.28
2018-06-24T15:38:50.072Z,40.67
2018-06-24T15:41:22.226Z,39.03
2018-06-24T15:43:54.314Z,40.46
2018-06-24T15:46:26.442Z,40.77
2018-06-24T15:48:58.546Z,42.07
2018-06-24T15:51:30.604Z,41.97
2018-06-24T15:54:02.709Z,41.65
2018-06-24T15:56:34.857Z,42.62
2018-06-24T15:59:06.931Z,43.17
2018-06-24T16:01:39.096Z,43.78
2018-06-24T16:04:11.207Z,44.05
2018-06-24T16:06:43.556Z,44.82
2018-06-24T16:09:15.875Z,44.20
2018-06-24T16:11:47.959Z,43.38
2018-06-24T16:14:20.073Z,43.25
2018-06-24T16:16:52.447Z,43.86
2018-06-24T16:19:24.788Z,44.55
2018-06-24T16:21:56.853Z,45.15
2018-06-24T16:24:28.907Z,45.99
2018-06-24T16:27:01.032Z,45.22
2018-06-24T16:29:33.146Z,44.75
2018-06-24T16:32:05.464Z,45.25
2018-06-24T16:34:37.681Z,45.01
2018-06-24T16:37:09.757Z,44.94
2018-06-24T16:39:41.855Z,44.51
2018-06-24T16:42:13.989Z,41.61
2018-06-24T16:44:46.122Z,42.41
2018-06-24T16:47:18.181Z,42.40
2018-06-24T16:49:50.330Z,41.65
2018-06-24T16:52:22.405Z,41.12
2018-06-24T16:54:54.479Z,41.31
2018-06-24T16:57:26.574Z,41.85
2018-06-24T16:59:58.666Z,41.93
2018-06-24T17:02:30.911Z,41.51
2018-06-24T17:05:03.100Z,42.35
2018-06-24T17:07:41.812Z,42.56
2018-06-24T17:10:13.945Z,44.22
2018-06-24T17:12:46.020Z,43.77
2018-06-24T17:15:18.090Z,43.68
2018-06-24T17:17:50.218Z,44.08
2018-06-24T17:20:22.497Z,42.41
2018-06-24T17:22:55.266Z,42.60
2018-06-24T17:25:27.398Z,43.03
2018-06-24T17:27:59.678Z,42.74
2018-06-24T17:30:32.187Z,40.82
2018-06-24T17:33:04.399Z,41.12
2018-06-24T17:35:36.507Z,42.11
2018-06-24T17:38:08.620Z,41.68
2018-06-24T17:40:43.284Z,42.51
2018-06-24T17:43:17.984Z,42.64
2018-06-24T17:45:50.187Z,43.04
2018-06-24T17:48:22.335Z,43.17
2018-06-24T17:50:54.509Z,43.11
2018-06-24T17:53:26.664Z,43.93
2018-06-24T17:55:58.762Z,43.80
2018-06-24T17:58:30.827Z,44.59
2018-06-24T18:01:03.314Z,44.74
2018-06-24T18:03:35.395Z,44.66
2018-06-24T18:06:07.508Z,45.13
2018-06-24T18:08:39.633Z,45.18
2018-06-24T18:11:11.750Z,45.49
2018-06-24T18:13:43.951Z,45.63
2018-06-24T18:16:16.287Z,45.18
2018-06-24T18:18:48.449Z,46.06
2018-06-24T18:21:20.580Z,45.84
2018-06-24T18:23:52.697Z,47.05
2018-06-24T18:26:25.116Z,46.86
2018-06-24T18:28:57.288Z,47.21
2018-06-24T18:31:30.219Z,47.71
2018-06-24T18:34:02.327Z,47.94
2018-06-24T18:36:34.417Z,48.02
2018-06-24T18:39:07.620Z,47.86
2018-06-24T18:41:39.715Z,48.83
2018-06-24T18:44:11.899Z,49.65
2018-06-24T18:46:44.067Z,49.77
2018-06-24T18:49:16.190Z,49.30
2018-06-24T18:51:50.378Z,50.19
2018-06-24T18:54:22.490Z,49.54
2018-06-24T18:56:54.667Z,50.76
2018-06-24T18:59:26.751Z,50.29
2018-06-24T19:01:58.931Z,49.79
2018-06-24T19:04:31.008Z,50.62
2018-06-24T19:07:03.188Z,50.90
2018-06-24T19:09:35.428Z,51.49
2018-06-24T19:12:07.547Z,52.53
2018-06-24T19:14:39.707Z,53.53
2018-06-24T19:17:12.155Z,53.91
2018-06-24T19:19:44.240Z,54.42
2018-06-24T19:22:16.368Z,55.61
2018-06-24T19:24:48.523Z,54.93
2018-06-24T19:27:20.627Z,54.32
2018-06-24T19:29:52.736Z,54.43
2018-06-24T19:32:26.020Z,54.74
2018-06-24T19:34:58.207Z,54.77
2018-06-24T19:37:30.255Z,55.21
2018-06-24T19:40:02.303Z,55.26
2018-06-24T19:42:34.342Z,56.59
2018-06-24T19:45:06.452Z,59.51
2018-06-24T19:47:38.708Z,59.95
2018-06-24T19:50:10.879Z,61.15
2018-06-24T19:52:42.948Z,61.18
2018-06-24T19:55:15.071Z,61.85
2018-06-24T19:57:47.141Z,62.15
2018-06-24T20:00:19.767Z,62.10
2018-06-24T20:02:51.976Z,60.92
2018-06-24T20:05:24.051Z,61.56
2018-06-24T20:07:56.067Z,63.11
2018-06-24T20:10:28.164Z,64.54
2018-06-24T20:13:00.280Z,63.72
2018-06-24T20:15:32.340Z,66.91
2018-06-24T20:18:04.523Z,68.12
2018-06-24T20:20:36.676Z,67.78
2018-06-24T20:23:08.760Z,68.52
2018-06-24T20:25:40.880Z,67.92
2018-06-24T20:28:12.935Z,68.50
2018-06-24T20:30:45.220Z,69.54
2018-06-24T20:33:17.286Z,70.12
2018-06-24T20:35:49.335Z,68.83
2018-06-24T20:38:21.428Z,67.94
2018-06-24T20:40:53.543Z,69.72
2018-06-24T20:43:25.638Z,70.46
2018-06-24T20:45:57.796Z,69.28
2018-06-24T20:48:29.980Z,69.32
2018-06-24T20:51:02.091Z,67.73
2018-06-24T20:53:34.175Z,66.07
2018-06-24T20:56:06.354Z,66.57
2018-06-24T20:58:38.494Z,66.99
2018-06-24T21:01:10.693Z,67.46
2018-06-24T21:03:42.718Z,66.87
2018-06-24T21:06:14.852Z,66.00
2018-06-24T21:08:46.956Z,66.45
2018-06-24T21:11:19.134Z,66.11
2018-06-24T21:13:51.245Z,64.53
2018-06-24T21:16:23.617Z,61.91
2018-06-24T21:18:55.724Z,60.99
2018-06-24T21:21:27.855Z,60.63
2018-06-24T21:23:59.964Z,60.67
2018-06-24T21:26:32.021Z,60.88
2018-06-24T21:29:04.222Z,61.68
2018-06-24T21:31:36.504Z,61.43
2018-06-24T21:34:08.569Z,61.76
2018-06-24T21:36:40.669Z,62.39
2018-06-24T21:39:12.769Z,62.97
2018-06-24T21:41:44.884Z,63.39
2018-06-24T21:44:16.931Z,63.42
2018-06-24T21:46:50.251Z,64.27
2018-06-24T21:49:22.497Z,64.85
2018-06-24T21:51:55.473Z,65.36
2018-06-24T21:54:27.635Z,65.37
2018-06-24T21:56:59.746Z,66.82
2018-06-24T21:59:32.042Z,66.36
2018-06-24T22:02:04.728Z,67.17
2018-06-24T22:04:36.859Z,67.50
2018-06-24T22:07:08.917Z,68.38
2018-06-24T22:09:40.986Z,69.36
2018-06-24T22:12:13.048Z,70.01
2018-06-24T22:14:45.130Z,70.05
2018-06-24T22:17:17.253Z,71.63
2018-06-24T22:19:49.313Z,72.76
2018-06-24T22:22:21.469Z,73.83
2018-06-24T22:24:53.700Z,74.11
2018-06-24T22:27:25.751Z,73.97
2018-06-24T22:29:57.828Z,74.77
2018-06-24T22:32:29.879Z,75.01
2018-06-24T22:35:01.966Z,76.00
2018-06-24T22:37:34.104Z,77.02
2018-06-24T22:40:06.197Z,78.38
2018-06-24T22:42:38.362Z,81.04
2018-06-24T22:45:10.468Z,84.37
2018-06-24T22:47:42.541Z,86.62
2018-06-24T22:50:14.679Z,87.47
2018-06-24T22:52:46.785Z,87.74
2018-06-24T22:55:18.893Z,88.08
2018-06-24T22:57:51.016Z,87.90
2018-06-24T23:00:23.124Z,88.90
2018-06-24T23:03:02.140Z,87.13
2018-06-24T23:05:34.183Z,87.47
2018-06-24T23:08:06.320Z,89.09
2018-06-24T23:10:38.443Z,90.60
2018-06-24T23:13:10.572Z,91.32
2018-06-24T23:15:42.645Z,90.24
2018-06-24T23:18:14.728Z,91.42
2018-06-24T23:20:46.830Z,90.91
2018-06-24T23:23:18.972Z,91.55
2018-06-24T23:25:51.095Z,90.88
2018-06-24T23:28:23.210Z,91.28
2018-06-24T23:30:55.360Z,90.59
2018-06-24T23:33:27.461Z,91.79
2018-06-24T23:35:59.600Z,90.65
2018-06-24T23:38:31.740Z,91.49
2018-06-24T23:41:03.832Z,90.32
2018-06-24T23:43:35.935Z,89.48
2018-06-24T23:46:08.163Z,89.53
2018-06-24T23:48:40.492Z,89.82
2018-06-24T23:51:12.632Z,90.10
2018-06-24T23:53:44.751Z,90.42
2018-06-24T23:56:16.890Z,89.79
2018-06-24T23:58:49.048Z,90.87
